createdAt,value
2018-05-15T00:00:45.745Z,100.00
2018-05-15T00:03:12.199Z,100.00
2018-05-15T00:05:38.561Z,100.00
2018-05-15T00:08:09.811Z,100.00
2018-05-15T00:10:36.887Z,100.00
2018-05-15T00:13:03.229Z,100.00
2018-05-15T00:15:29.875Z,100.00
2018-05-15T00:17:56.363Z,100.00
2018-05-15T00:20:22.721Z,100.00
2018-05-15T00:22:49.682Z,100.00
2018-05-15T00:25:20.195Z,100.00
2018-05-15T00:27:46.560Z,100.00
2018-05-15T00:30:13.634Z,100.00
2018-05-15T00:32:40.723Z,100.00
2018-05-15T00:35:08.630Z,100.00
2018-05-15T00:37:34.913Z,100.00
2018-05-15T00:40:01.401Z,100.00
2018-05-15T00:42:31.949Z,100.00
2018-05-15T00:44:59.698Z,100.00
2018-05-15T00:47:26.862Z,100.00
2018-05-15T00:49:55.117Z,100.00
2018-05-15T00:52:21.498Z,100.00
2018-05-15T00:57:57.194Z,100.00
2018-05-15T01:00:24.211Z,100.00
2018-05-15T01:02:55.112Z,100.00
2018-05-15T01:05:21.489Z,100.00
2018-05-15T01:07:47.818Z,100.00
2018-05-15T01:10:14.187Z,100.00
2018-05-15T01:12:40.638Z,100.00
2018-05-15T01:15:06.950Z,100.00
2018-05-15T01:17:34.023Z,100.00
2018-05-15T01:20:01.043Z,100.00
2018-05-15T01:22:28.198Z,100.00
2018-05-15T01:24:54.661Z,100.00
2018-05-15T01:27:21.092Z,100.00
2018-05-15T01:29:47.960Z,100.00
2018-05-15T01:32:14.318Z,100.00
2018-05-15T01:34:41.600Z,100.00
2018-05-15T01:37:08.109Z,100.00
2018-05-15T01:39:35.263Z,100.00
2018-05-15T01:42:02.332Z,100.00
2018-05-15T01:44:28.636Z,100.00
2018-05-15T01:46:55.837Z,100.00
2018-05-15T01:49:22.161Z,100.00
2018-05-15T01:51:48.493Z,100.00
2018-05-15T01:54:15.032Z,100.00
2018-05-15T01:56:45.895Z,100.00
2018-05-15T01:59:12.291Z,100.00
2018-05-15T02:01:39.187Z,100.00
2018-05-15T02:04:06.281Z,100.00
2018-05-15T02:06:32.602Z,100.00
2018-05-15T02:08:58.997Z,100.00
2018-05-15T02:11:26.050Z,100.00
2018-05-15T02:13:53.112Z,100.00
2018-05-15T02:16:19.443Z,100.00
2018-05-15T02:18:45.740Z,100.00
2018-05-15T02:21:12.097Z,100.00
2018-05-15T02:23:38.410Z,100.00
2018-05-15T02:26:05.613Z,100.00
2018-05-15T02:28:31.950Z,100.00
2018-05-15T02:30:58.248Z,100.00
2018-05-15T02:33:24.577Z,100.00
2018-05-15T02:35:50.890Z,100.00
2018-05-15T02:38:17.194Z,100.00
2018-05-15T02:40:44.259Z,100.00
2018-05-15T02:43:11.307Z,100.00
2018-05-15T02:45:38.379Z,100.00
2018-05-15T02:48:04.723Z,100.00
2018-05-15T02:50:31.068Z,100.00
2018-05-15T02:52:57.461Z,100.00
2018-05-15T02:55:23.818Z,100.00
2018-05-15T02:57:50.145Z,100.00
2018-05-15T03:00:16.514Z,100.00
2018-05-15T03:02:42.886Z,100.00
2018-05-15T03:05:09.198Z,100.00
2018-05-15T03:07:35.518Z,100.00
2018-05-15T03:10:02.649Z,100.00
2018-05-15T03:12:29.032Z,100.00
2018-05-15T03:14:55.384Z,100.00
2018-05-15T03:17:21.719Z,100.00
2018-05-15T03:19:48.041Z,100.00
2018-05-15T03:22:14.404Z,100.00
2018-05-15T03:24:41.451Z,100.00
2018-05-15T03:27:08.566Z,100.00
2018-05-15T03:29:34.903Z,100.00
2018-05-15T03:32:01.274Z,100.00
2018-05-15T03:34:27.654Z,100.00
2018-05-15T03:36:53.950Z,100.00
2018-05-15T03:39:24.260Z,100.00
2018-05-15T03:41:50.632Z,100.00
2018-05-15T03:44:17.022Z,100.00
2018-05-15T03:46:44.118Z,100.00
2018-05-15T03:49:10.502Z,100.00
2018-05-15T03:51:36.825Z,100.00
2018-05-15T03:54:03.204Z,100.00
2018-05-15T03:56:29.617Z,100.00
2018-05-15T03:58:56.061Z,100.00
2018-05-15T04:01:40.835Z,100.00
2018-05-15T04:04:26.408Z,100.00
2018-05-15T04:07:11.126Z,100.00
2018-05-15T04:09:37.468Z,100.00
2018-05-15T04:12:03.800Z,100.00
2018-05-15T04:14:30.198Z,100.00
2018-05-15T04:16:57.280Z,100.00
2018-05-15T04:19:23.604Z,100.00
2018-05-15T04:21:49.906Z,100.00
2018-05-15T04:24:17.037Z,100.00
2018-05-15T04:26:43.357Z,100.00
2018-05-15T04:29:10.687Z,100.00
2018-05-15T04:31:37.103Z,100.00
2018-05-15T04:34:03.445Z,100.00
2018-05-15T04:36:29.841Z,100.00
2018-05-15T04:38:56.187Z,100.00
2018-05-15T04:41:22.567Z,100.00
2018-05-15T04:43:49.240Z,99.96
2018-05-15T04:46:16.098Z,100.00
2018-05-15T04:48:42.412Z,100.00
2018-05-15T04:51:08.966Z,99.96
2018-05-15T04:53:35.323Z,99.49
2018-05-15T04:56:01.845Z,99.06
2018-05-15T04:58:28.275Z,99.25
2018-05-15T05:00:54.813Z,98.42
2018-05-15T05:03:21.232Z,99.05
2018-05-15T05:05:47.697Z,99.23
2018-05-15T05:08:14.042Z,99.40
2018-05-15T05:10:40.417Z,97.86
2018-05-15T05:13:06.921Z,97.11
2018-05-15T05:15:34.072Z,97.26
2018-05-15T05:18:01.255Z,97.76
2018-05-15T05:20:27.664Z,96.22
2018-05-15T05:22:55.113Z,96.92
2018-05-15T05:25:22.241Z,98.48
2018-05-15T05:27:48.649Z,98.23
2018-05-15T05:30:14.979Z,98.15
2018-05-15T05:32:41.331Z,98.12
2018-05-15T05:35:08.402Z,96.25
2018-05-15T05:37:35.536Z,94.66
2018-05-15T05:40:02.739Z,87.74
2018-05-15T05:42:29.030Z,86.09
2018-05-15T05:44:55.598Z,87.33
2018-05-15T05:47:21.941Z,85.27
2018-05-15T05:49:49.001Z,84.04
2018-05-15T05:52:15.481Z,83.63
2018-05-15T05:54:41.794Z,87.02
2018-05-15T05:57:08.926Z,88.11
2018-05-15T05:59:35.311Z,86.12
2018-05-15T06:02:01.648Z,86.73
2018-05-15T06:04:27.995Z,88.80
2018-05-15T06:06:54.449Z,90.97
2018-05-15T06:09:20.774Z,82.59
2018-05-15T06:11:47.088Z,85.22
2018-05-15T06:14:13.497Z,88.69
2018-05-15T06:16:40.538Z,87.18
2018-05-15T06:19:06.835Z,87.04
2018-05-15T06:21:33.901Z,89.70
2018-05-15T06:24:00.215Z,88.77
2018-05-15T06:26:26.554Z,88.34
2018-05-15T06:28:52.873Z,90.33
2018-05-15T06:31:20.051Z,90.12
2018-05-15T06:33:46.490Z,89.76
2018-05-15T06:36:12.808Z,89.90
2018-05-15T06:38:39.151Z,87.03
2018-05-15T06:41:05.469Z,87.06
2018-05-15T06:43:32.176Z,85.59
2018-05-15T06:45:59.220Z,86.33
2018-05-15T06:48:26.417Z,86.12
2018-05-15T06:50:52.732Z,83.24
2018-05-15T06:53:19.122Z,84.12
2018-05-15T06:55:46.184Z,81.85
2018-05-15T06:58:12.550Z,84.17
2018-05-15T07:00:38.889Z,83.93
2018-05-15T07:03:05.411Z,84.16
2018-05-15T07:05:31.839Z,83.99
2018-05-15T07:07:58.181Z,84.18
2018-05-15T07:10:24.550Z,85.46
2018-05-15T07:12:50.938Z,86.08
2018-05-15T07:15:17.367Z,80.67
2018-05-15T07:17:43.699Z,81.49
2018-05-15T07:20:10.051Z,80.40
2018-05-15T07:22:36.360Z,79.96
2018-05-15T07:25:02.770Z,80.08
2018-05-15T07:27:29.195Z,78.93
2018-05-15T07:29:55.498Z,80.50
2018-05-15T07:32:22.686Z,79.56
2018-05-15T07:34:49.017Z,80.08
2018-05-15T07:37:15.373Z,79.54
2018-05-15T07:39:41.719Z,76.34
2018-05-15T07:42:08.798Z,75.37
2018-05-15T07:44:35.901Z,76.23
2018-05-15T07:47:03.086Z,74.20
2018-05-15T07:49:30.138Z,74.03
2018-05-15T07:51:57.229Z,76.22
2018-05-15T07:54:23.603Z,77.36
2018-05-15T07:56:49.926Z,74.23
2018-05-15T07:59:16.286Z,78.24
2018-05-15T08:01:42.669Z,74.02
2018-05-15T08:04:09.163Z,72.50
2018-05-15T08:06:36.438Z,74.39
2018-05-15T08:09:02.990Z,72.45
2018-05-15T08:11:29.392Z,71.92
2018-05-15T08:13:55.763Z,69.97
2018-05-15T08:16:22.184Z,68.51
2018-05-15T08:18:48.522Z,69.42
2018-05-15T08:21:14.845Z,66.20
2018-05-15T08:23:41.170Z,69.09
2018-05-15T08:26:07.521Z,64.37
2018-05-15T08:28:33.864Z,66.43
2018-05-15T08:31:00.276Z,65.70
2018-05-15T08:33:26.683Z,66.26
2018-05-15T08:35:53.044Z,66.89
2018-05-15T08:38:19.377Z,65.15
2018-05-15T08:40:45.680Z,66.01
2018-05-15T08:43:12.004Z,65.24
2018-05-15T08:45:38.365Z,64.35
2018-05-15T08:48:04.762Z,63.39
2018-05-15T08:50:31.088Z,62.49
2018-05-15T08:52:57.413Z,64.49
2018-05-15T08:55:23.720Z,61.77
2018-05-15T08:57:50.032Z,60.81
2018-05-15T09:00:16.393Z,62.06
2018-05-15T09:02:42.703Z,59.15
2018-05-15T09:05:09.067Z,58.48
2018-05-15T09:07:35.419Z,58.57
2018-05-15T09:10:01.792Z,57.95
2018-05-15T09:12:28.121Z,59.65
2018-05-15T09:14:54.562Z,59.49
2018-05-15T09:17:20.965Z,59.14
2018-05-15T09:19:48.014Z,61.65
2018-05-15T09:22:15.090Z,61.90
2018-05-15T09:24:41.394Z,59.97
2018-05-15T09:27:08.446Z,59.67
2018-05-15T09:29:34.790Z,56.54
2018-05-15T09:32:01.113Z,56.04
2018-05-15T09:34:27.533Z,59.43
2018-05-15T09:36:54.600Z,55.63
2018-05-15T09:39:20.939Z,55.41
2018-05-15T09:41:47.477Z,54.41
2018-05-15T09:44:13.861Z,56.21
2018-05-15T09:46:40.943Z,54.44
2018-05-15T09:49:07.366Z,56.10
2018-05-15T09:51:33.839Z,54.22
2018-05-15T09:54:00.225Z,53.26
2018-05-15T09:56:26.580Z,52.43
2018-05-15T09:58:52.943Z,53.63
2018-05-15T10:01:19.682Z,53.39
2018-05-15T10:03:46.036Z,50.66
2018-05-15T10:06:13.218Z,52.48
2018-05-15T10:08:39.537Z,52.35
2018-05-15T10:11:05.975Z,54.35
2018-05-15T10:13:32.362Z,51.76
2018-05-15T10:15:59.540Z,52.05
2018-05-15T10:18:25.996Z,51.68
2018-05-15T10:20:52.429Z,51.37
2018-05-15T10:23:18.985Z,50.06
2018-05-15T10:25:45.423Z,53.05
2018-05-15T10:28:11.880Z,49.96
2018-05-15T10:30:38.985Z,53.65
2018-05-15T10:33:05.419Z,49.29
2018-05-15T10:35:31.791Z,48.91
2018-05-15T10:37:58.959Z,49.52
2018-05-15T10:40:26.031Z,48.90
2018-05-15T10:42:52.638Z,44.30
2018-05-15T10:45:19.750Z,43.52
2018-05-15T10:47:46.256Z,43.54
2018-05-15T10:50:12.723Z,42.85
2018-05-15T10:52:39.261Z,44.15
2018-05-15T10:55:05.644Z,46.34
2018-05-15T10:57:32.130Z,44.65
2018-05-15T10:59:59.240Z,43.29
2018-05-15T11:02:26.831Z,41.51
2018-05-15T11:04:53.423Z,41.64
2018-05-15T11:07:19.856Z,41.40
2018-05-15T11:09:46.390Z,40.00
2018-05-15T11:12:12.816Z,40.09
2018-05-15T11:14:39.365Z,38.29
2018-05-15T11:17:05.766Z,41.01
2018-05-15T11:19:50.835Z,40.49
2018-05-15T11:22:36.335Z,37.85
2018-05-15T11:25:02.873Z,38.50
2018-05-15T11:27:29.376Z,40.52
2018-05-15T11:29:55.814Z,40.29
2018-05-15T11:32:22.211Z,40.61
2018-05-15T11:34:48.592Z,38.20
2018-05-15T11:37:14.954Z,38.09
2018-05-15T11:39:41.312Z,37.88
2018-05-15T11:42:08.432Z,37.48
2018-05-15T11:44:34.790Z,35.26
2018-05-15T11:47:01.371Z,36.01
2018-05-15T11:49:28.437Z,36.42
2018-05-15T11:51:55.183Z,36.48
2018-05-15T11:54:20.938Z,38.78
2018-05-15T11:56:48.227Z,38.03
2018-05-15T11:59:14.647Z,38.85
2018-05-15T12:01:41.199Z,38.18
2018-05-15T12:04:07.993Z,38.11
2018-05-15T12:06:39.207Z,36.85
2018-05-15T12:09:06.613Z,37.57
2018-05-15T12:11:33.190Z,36.35
2018-05-15T12:14:00.086Z,37.28
2018-05-15T12:16:27.332Z,37.24
2018-05-15T12:18:54.164Z,36.66
2018-05-15T12:21:20.551Z,36.14
2018-05-15T12:23:46.975Z,37.10
2018-05-15T12:26:13.606Z,35.54
2018-05-15T12:28:40.061Z,35.41
2018-05-15T12:31:06.853Z,34.84
2018-05-15T12:33:33.326Z,34.85
2018-05-15T12:35:59.814Z,35.52
2018-05-15T12:38:26.322Z,34.89
2018-05-15T12:40:52.692Z,36.89
2018-05-15T12:43:19.014Z,37.87
2018-05-15T12:45:45.397Z,35.95
2018-05-15T12:48:12.020Z,37.42
2018-05-15T12:50:39.060Z,38.76
2018-05-15T12:53:05.413Z,37.07
2018-05-15T12:55:31.835Z,37.14
2018-05-15T12:57:58.305Z,37.52
2018-05-15T13:00:24.729Z,36.62
2018-05-15T13:02:51.826Z,35.57
2018-05-15T13:05:18.301Z,34.82
2018-05-15T13:07:44.783Z,35.18
2018-05-15T13:10:11.352Z,33.50
2018-05-15T13:12:37.761Z,32.62
2018-05-15T13:15:04.243Z,33.32
2018-05-15T13:17:31.343Z,34.50
2018-05-15T13:19:57.711Z,35.76
2018-05-15T13:22:24.145Z,34.32
2018-05-15T13:24:50.602Z,34.74
2018-05-15T13:27:17.070Z,33.75
2018-05-15T13:29:43.566Z,34.02
2018-05-15T13:32:10.142Z,33.92
2018-05-15T13:34:37.311Z,34.01
2018-05-15T13:37:04.575Z,33.46
2018-05-15T13:39:30.966Z,34.76
2018-05-15T13:41:57.474Z,34.20
2018-05-15T13:44:23.930Z,33.25
2018-05-15T13:46:50.290Z,32.90
2018-05-15T13:49:16.721Z,33.30
2018-05-15T13:51:43.364Z,33.18
2018-05-15T13:54:09.772Z,34.55
2018-05-15T13:56:36.143Z,35.37
2018-05-15T13:59:03.252Z,37.44
2018-05-15T14:01:29.723Z,38.07
2018-05-15T14:03:56.830Z,38.77
2018-05-15T14:06:23.660Z,38.22
2018-05-15T14:08:50.064Z,38.70
2018-05-15T14:11:16.428Z,38.20
2018-05-15T14:13:43.069Z,39.47
2018-05-15T14:16:09.490Z,37.76
2018-05-15T14:18:35.831Z,37.58
2018-05-15T14:21:02.493Z,37.26
2018-05-15T14:23:28.796Z,37.48
2018-05-15T14:25:55.253Z,35.58
2018-05-15T14:28:21.601Z,34.70
2018-05-15T14:30:47.887Z,36.06
2018-05-15T14:33:14.313Z,37.48
2018-05-15T14:35:40.661Z,36.25
2018-05-15T14:38:07.069Z,36.17
2018-05-15T14:40:34.277Z,36.50
2018-05-15T14:43:13.789Z,36.77
2018-05-15T14:45:40.293Z,36.23
2018-05-15T14:48:06.769Z,37.56
2018-05-15T14:50:48.139Z,38.84
2018-05-15T14:53:14.519Z,38.45
2018-05-15T14:55:40.942Z,39.10
2018-05-15T14:58:07.385Z,38.42
2018-05-15T15:00:33.794Z,39.39
2018-05-15T15:03:00.897Z,39.92
2018-05-15T15:05:27.225Z,40.48
2018-05-15T15:07:53.581Z,41.40
2018-05-15T15:10:24.090Z,41.59
2018-05-15T15:12:50.429Z,43.54
2018-05-15T15:15:16.832Z,41.16
2018-05-15T15:17:43.182Z,42.22
2018-05-15T15:20:09.588Z,44.28
2018-05-15T15:22:36.073Z,52.70
2018-05-15T15:25:06.503Z,50.94
2018-05-15T15:27:33.180Z,52.44
2018-05-15T15:29:59.564Z,57.60
2018-05-15T15:32:25.874Z,57.48
2018-05-15T15:34:52.196Z,57.59
2018-05-15T15:37:18.588Z,54.48
2018-05-15T15:39:44.983Z,54.78
2018-05-15T15:42:11.322Z,66.49
2018-05-15T15:44:37.788Z,81.98
2018-05-15T15:47:04.227Z,87.78
2018-05-15T15:49:30.717Z,87.65
2018-05-15T15:51:57.871Z,95.37
2018-05-15T15:54:24.271Z,92.95
2018-05-15T15:56:50.579Z,88.63
2018-05-15T15:59:16.931Z,95.64
2018-05-15T16:01:43.220Z,95.30
2018-05-15T16:04:09.712Z,92.80
2018-05-15T16:06:36.828Z,97.53
2018-05-15T16:09:07.724Z,96.66
2018-05-15T16:11:34.303Z,97.60
2018-05-15T16:14:00.872Z,93.10
2018-05-15T16:16:28.076Z,93.14
2018-05-15T16:18:54.591Z,84.38
2018-05-15T16:21:21.092Z,90.65
2018-05-15T16:23:48.431Z,87.92
2018-05-15T16:26:14.874Z,87.04
2018-05-15T16:28:41.951Z,88.34
2018-05-15T16:31:08.396Z,89.68
2018-05-15T16:33:34.946Z,80.06
2018-05-15T16:36:01.408Z,79.52
2018-05-15T16:38:27.902Z,81.30
2018-05-15T16:40:54.321Z,89.37
2018-05-15T16:43:20.703Z,87.37
2018-05-15T16:45:47.280Z,89.64
2018-05-15T16:48:13.746Z,86.81
2018-05-15T16:50:40.133Z,88.19
2018-05-15T16:53:07.332Z,88.64
2018-05-15T16:55:34.524Z,93.13
2018-05-15T16:58:00.983Z,90.22
2018-05-15T17:00:27.516Z,88.03
2018-05-15T17:02:54.165Z,86.72
2018-05-15T17:05:20.799Z,90.08
2018-05-15T17:07:48.271Z,89.13
2018-05-15T17:10:14.840Z,83.25
2018-05-15T17:12:42.397Z,83.96
2018-05-15T17:15:09.599Z,82.45
2018-05-15T17:17:36.196Z,85.13
2018-05-15T17:20:03.562Z,77.82
2018-05-15T17:22:30.219Z,68.46
2018-05-15T17:24:56.633Z,70.33
2018-05-15T17:27:23.175Z,77.84
2018-05-15T17:29:49.955Z,73.39
2018-05-15T17:32:16.678Z,80.03
2018-05-15T17:34:43.180Z,76.96
2018-05-15T17:37:09.589Z,78.26
2018-05-15T17:39:36.417Z,78.48
2018-05-15T17:42:03.135Z,78.60
2018-05-15T17:44:29.787Z,77.88
2018-05-15T17:46:56.396Z,77.16
2018-05-15T17:49:23.098Z,76.31
2018-05-15T17:51:49.479Z,76.84
2018-05-15T17:54:16.172Z,79.09
2018-05-15T17:56:42.692Z,81.82
2018-05-15T17:59:10.009Z,81.64
2018-05-15T18:01:36.531Z,82.00
2018-05-15T18:04:03.119Z,77.42
2018-05-15T18:06:29.653Z,76.42
2018-05-15T18:08:56.138Z,77.83
2018-05-15T18:11:22.693Z,81.75
2018-05-15T18:13:49.159Z,86.67
2018-05-15T18:16:16.443Z,89.82
2018-05-15T18:18:43.027Z,90.94
2018-05-15T18:21:10.390Z,90.73
2018-05-15T18:23:36.772Z,90.31
2018-05-15T18:26:03.287Z,89.91
2018-05-15T18:28:29.886Z,91.31
2018-05-15T18:30:57.137Z,92.56
2018-05-15T18:33:24.543Z,85.58
2018-05-15T18:35:50.963Z,81.49
2018-05-15T18:38:19.048Z,77.06
2018-05-15T18:40:45.527Z,77.83
2018-05-15T18:43:12.751Z,77.29
2018-05-15T18:45:41.484Z,74.71
2018-05-15T18:48:08.045Z,76.17
2018-05-15T18:50:34.432Z,71.99
2018-05-15T18:53:01.691Z,72.47
2018-05-15T18:55:28.947Z,72.01
2018-05-15T18:57:55.396Z,73.93
2018-05-15T19:00:22.450Z,72.90
2018-05-15T19:02:48.803Z,72.28
2018-05-15T19:05:15.173Z,74.17
2018-05-15T19:07:42.335Z,75.20
2018-05-15T19:10:09.879Z,82.61
2018-05-15T19:12:37.093Z,85.61
2018-05-15T19:15:03.501Z,73.88
2018-05-15T19:17:29.903Z,74.35
2018-05-15T19:19:57.083Z,83.19
2018-05-15T19:22:23.478Z,86.35
2018-05-15T19:24:50.679Z,83.76
2018-05-15T19:27:17.277Z,87.54
2018-05-15T19:29:43.818Z,81.86
2018-05-15T19:32:16.343Z,82.64
2018-05-15T19:34:48.808Z,82.93
2018-05-15T19:37:15.904Z,81.88
2018-05-15T19:39:43.389Z,82.94
2018-05-15T19:42:09.781Z,79.36
2018-05-15T19:44:37.008Z,78.33
2018-05-15T19:47:03.475Z,79.90
2018-05-15T19:49:30.649Z,81.11
2018-05-15T19:51:56.961Z,81.24
2018-05-15T19:54:23.355Z,82.40
2018-05-15T19:56:49.977Z,83.05
2018-05-15T19:59:16.386Z,84.46
2018-05-15T20:01:42.769Z,83.88
2018-05-15T20:04:09.888Z,84.07
2018-05-15T20:06:36.323Z,83.86
2018-05-15T20:09:06.128Z,84.94
2018-05-15T20:11:32.646Z,85.49
2018-05-15T20:13:58.998Z,85.93
2018-05-15T20:16:25.410Z,83.73
2018-05-15T20:18:51.784Z,82.38
2018-05-15T20:21:18.287Z,83.33
2018-05-15T20:23:44.940Z,81.99
2018-05-15T20:26:11.295Z,81.84
2018-05-15T20:28:38.104Z,82.13
2018-05-15T20:31:04.551Z,83.58
2018-05-15T20:33:30.998Z,84.85
2018-05-15T20:35:58.423Z,85.24
2018-05-15T20:38:25.062Z,85.72
2018-05-15T20:40:51.534Z,86.05
2018-05-15T20:43:19.431Z,86.48
2018-05-15T20:45:45.978Z,86.22
2018-05-15T20:48:12.375Z,86.97
2018-05-15T20:50:38.721Z,87.34
2018-05-15T20:53:05.144Z,85.14
2018-05-15T20:55:31.559Z,84.99
2018-05-15T20:57:57.962Z,82.40
2018-05-15T21:00:24.364Z,82.70
2018-05-15T21:02:50.770Z,83.28
2018-05-15T21:05:17.091Z,84.14
2018-05-15T21:07:43.559Z,83.02
2018-05-15T21:10:10.942Z,85.52
2018-05-15T21:12:37.300Z,85.69
2018-05-15T21:15:03.969Z,85.51
2018-05-15T21:17:30.308Z,82.68
2018-05-15T21:22:32.854Z,83.89
2018-05-15T21:24:59.264Z,82.86
2018-05-15T21:27:25.633Z,82.00
2018-05-15T21:29:51.990Z,79.23
2018-05-15T21:32:18.372Z,79.43
2018-05-15T21:34:45.458Z,79.75
2018-05-15T21:37:11.832Z,81.36
2018-05-15T21:39:38.201Z,81.72
2018-05-15T21:42:04.548Z,81.40
2018-05-15T21:44:30.961Z,83.04
2018-05-15T21:46:57.329Z,84.55
2018-05-15T21:49:24.231Z,84.89
2018-05-15T21:51:50.591Z,83.03
2018-05-15T21:54:16.997Z,83.01
2018-05-15T21:56:43.352Z,82.79
2018-05-15T21:59:09.864Z,83.45
2018-05-15T22:01:36.259Z,84.36
2018-05-15T22:04:03.452Z,84.36
2018-05-15T22:06:29.879Z,84.19
2018-05-15T22:08:56.310Z,85.68
2018-05-15T22:11:22.411Z,85.62
2018-05-15T22:14:07.171Z,87.25
2018-05-15T22:16:52.025Z,87.52
2018-05-15T22:19:36.720Z,87.98
2018-05-15T22:22:13.863Z,88.13
2018-05-15T22:24:41.012Z,89.66
2018-05-15T22:27:08.099Z,88.92
2018-05-15T22:29:34.545Z,89.92
2018-05-15T22:32:00.976Z,89.88
2018-05-15T22:34:27.819Z,89.28
2018-05-15T22:36:54.190Z,87.74
2018-05-15T22:39:21.817Z,87.44
2018-05-15T22:41:48.137Z,86.98
2018-05-15T22:44:14.462Z,85.69
2018-05-15T22:46:42.688Z,86.22
2018-05-15T22:49:08.959Z,86.40
2018-05-15T22:51:35.294Z,86.36
2018-05-15T22:54:01.639Z,86.85
2018-05-15T22:56:28.118Z,89.01
2018-05-15T22:58:55.198Z,89.10
2018-05-15T23:01:21.795Z,88.94
2018-05-15T23:03:48.143Z,89.12
2018-05-15T23:06:14.496Z,89.51
2018-05-15T23:08:46.471Z,90.94
2018-05-15T23:11:13.806Z,90.73
2018-05-15T23:13:40.262Z,91.28
2018-05-15T23:16:06.652Z,91.64
2018-05-15T23:18:33.211Z,91.57
2018-05-15T23:20:59.829Z,91.75
2018-05-15T23:23:30.372Z,91.08
2018-05-15T23:25:56.806Z,90.22
2018-05-15T23:28:23.221Z,88.09
2018-05-15T23:30:50.912Z,88.41
2018-05-15T23:33:17.341Z,87.43
2018-05-15T23:35:47.927Z,87.33
2018-05-15T23:38:14.996Z,86.40
2018-05-15T23:40:45.561Z,85.86
2018-05-15T23:43:12.336Z,87.75
2018-05-15T23:45:39.433Z,85.63
2018-05-15T23:48:05.756Z,84.40
2018-05-15T23:50:37.290Z,86.06
2018-05-15T23:53:03.611Z,86.51
2018-05-15T23:55:29.988Z,88.37
2018-05-15T23:57:56.395Z,89.03
